Time;durP1;ratioP1;P1;durP2;ratioP2;P2;SDS_P1;SDS_P2;PMS_P1;PMS_P2;Temp;Humidity;BMP_temperature;BMP_pressure;BME280_temperature;BME280_humidity;BME280_pressure;Samples;Min_cycle;Max_cycle;Signal;HPM_P1;HPM_P2
2023/09/09 00:00:28;;;;;;;8.35;7.60;;;;;;;14.51;100.00;93256.31;2093112;28;20099;-85
2023/09/09 00:01:30;;;;;;;7.72;7.03;;;;;;;14.56;100.00;93255.00;2082013;28;20494;-84
2023/09/09 00:02:37;;;;;;;8.25;7.45;;;;;;;14.49;100.00;93257.97;2093274;28;20844;-84
2023/09/09 00:03:38;;;;;;;8.32;7.53;;;;;;;14.45;100.00;93260.00;2097660;28;20029;-85
2023/09/09 00:04:42;;;;;;;7.65;6.70;;;;;;;14.40;100.00;93247.09;2107250;27;20451;-85
2023/09/09 00:05:44;;;;;;;8.05;7.40;;;;;;;14.47;100.00;93252.22;2109601;28;20119;-84
2023/09/09 00:06:49;;;;;;;7.75;7.05;;;;;;;14.39;100.00;93257.09;2098814;28;20377;-85
2023/09/09 00:07:51;;;;;;;8.93;8.05;;;;;;;14.46;100.00;93250.75;2098362;28;20036;-83
2023/09/09 00:08:58;;;;;;;8.18;7.47;;;;;;;14.40;100.00;93252.47;2100883;28;20024;-84
2023/09/09 00:10:00;;;;;;;8.73;7.93;;;;;;;14.39;100.00;93250.97;2091544;28;20021;-83
2023/09/09 00:11:05;;;;;;;8.30;7.50;;;;;;;14.43;100.00;93260.41;2092071;28;20025;-83
2023/09/09 00:12:09;;;;;;;10.80;7.60;;;;;;;14.42;100.00;93253.53;2101221;28;20024;-84
2023/09/09 00:13:13;;;;;;;8.60;7.32;;;;;;;14.44;100.00;93245.78;2114650;28;20216;-85
2023/09/09 00:14:17;;;;;;;8.57;7.75;;;;;;;14.49;100.00;93255.28;2100428;28;20097;-82
2023/09/09 00:15:18;;;;;;;8.77;7.93;;;;;;;14.49;100.00;93247.97;2097496;28;20033;-83
2023/09/09 00:16:20;;;;;;;8.48;7.65;;;;;;;14.45;100.00;93250.00;2089889;28;20025;-83
2023/09/09 00:17:22;;;;;;;8.82;8.02;;;;;;;14.42;100.00;93247.41;2093863;28;20025;-83
2023/09/09 00:18:24;;;;;;;8.27;7.43;;;;;;;14.35;100.00;93251.09;2091203;28;20044;-83
2023/09/09 00:19:27;;;;;;;8.50;7.63;;;;;;;14.36;100.00;93252.59;2097403;28;20090;-83
2023/09/09 00:20:38;;;;;;;8.88;7.63;;;;;;;14.35;100.00;93251.88;2098479;28;20051;-83
2023/09/09 00:21:41;;;;;;;8.10;7.35;;;;;;;14.35;100.00;93251.88;2101508;28;20056;-84
2023/09/09 00:22:43;;;;;;;8.93;7.43;;;;;;;14.29;100.00;93258.22;2103516;27;20028;-83
2023/09/09 00:23:46;;;;;;;9.65;8.57;;;;;;;14.27;100.00;93255.22;2103205;28;20020;-83
2023/09/09 00:24:49;;;;;;;7.97;7.38;;;;;;;14.27;100.00;93258.66;2082386;28;20052;-83
2023/09/09 00:25:52;;;;;;;8.15;7.35;;;;;;;14.27;100.00;93258.66;2089403;28;20122;-84
2023/09/09 00:26:55;;;;;;;8.77;7.95;;;;;;;14.26;100.00;93254.44;2090388;28;20049;-84
2023/09/09 00:28:00;;;;;;;7.93;7.28;;;;;;;14.26;100.00;93259.06;2098850;28;20031;-84
2023/09/09 00:29:08;;;;;;;8.73;7.72;;;;;;;14.29;100.00;93260.91;2098054;28;20024;-83
2023/09/09 00:30:10;;;;;;;9.57;8.15;;;;;;;14.27;100.00;93258.66;2091517;28;20470;-83
2023/09/09 00:31:12;;;;;;;7.88;7.18;;;;;;;14.20;100.00;93258.13;2097749;28;20545;-83
2023/09/09 00:32:13;;;;;;;8.02;7.13;;;;;;;14.22;100.00;93263.81;2089811;28;20620;-83
2023/09/09 00:33:18;;;;;;;8.57;7.78;;;;;;;14.25;100.00;93262.97;2081960;28;20026;-83
2023/09/09 00:34:20;;;;;;;8.45;7.72;;;;;;;14.24;100.00;93258.78;2090927;28;20048;-84
2023/09/09 00:35:21;;;;;;;8.48;7.65;;;;;;;14.25;100.00;93258.31;2082155;28;20035;-84
2023/09/09 00:36:26;;;;;;;8.95;7.78;;;;;;;14.26;100.00;93262.50;2086519;28;20041;-82
2023/09/09 00:37:33;;;;;;;8.50;7.68;;;;;;;14.25;100.00;93263.72;2088009;28;20026;-83
2023/09/09 00:38:38;;;;;;;8.40;7.60;;;;;;;14.26;100.00;93261.78;2091617;28;20469;-83
2023/09/09 00:39:40;;;;;;;8.45;7.65;;;;;;;14.25;100.00;93268.34;2111286;27;20036;-82
2023/09/09 00:41:09;;;;;;;8.70;7.90;;;;;;;14.20;100.00;93260.81;2102492;28;20024;-84
2023/09/09 00:42:10;;;;;;;8.13;7.38;;;;;;;14.19;100.00;93262.03;2096746;28;20059;-85
2023/09/09 00:43:13;;;;;;;8.60;7.90;;;;;;;14.27;100.00;93257.91;2089620;28;20033;-84
2023/09/09 00:44:18;;;;;;;8.50;7.68;;;;;;;14.23;100.00;93266.09;2086290;28;20049;-83
2023/09/09 00:45:20;;;;;;;8.73;8.02;;;;;;;14.24;100.00;93266.84;2090962;28;20115;-83
2023/09/09 00:46:24;;;;;;;8.15;7.28;;;;;;;14.26;100.00;93269.84;2097203;28;21144;-82
2023/09/09 00:47:30;;;;;;;7.82;7.03;;;;;;;14.19;100.00;93259.34;2082288;28;20028;-84
2023/09/09 00:48:39;;;;;;;7.97;7.20;;;;;;;14.16;100.00;93265.56;2103086;28;20123;-85
2023/09/09 00:49:50;;;;;;;9.75;8.13;;;;;;;14.17;100.00;93267.06;2090994;28;20028;-83
2023/09/09 00:50:57;;;;;;;8.38;7.57;;;;;;;14.18;100.00;93253.22;2102506;28;20025;-83
2023/09/09 00:52:02;;;;;;;8.40;7.65;;;;;;;14.09;100.00;93258.47;2107400;28;20539;-84
2023/09/09 00:53:04;;;;;;;8.10;7.43;;;;;;;14.07;100.00;93256.22;2114414;28;20069;-82
2023/09/09 00:54:06;;;;;;;8.73;7.72;;;;;;;14.11;100.00;93264.19;2100383;28;20056;-85
2023/09/09 00:55:10;;;;;;;8.13;7.30;;;;;;;14.03;100.00;93255.59;2098178;28;20389;-84
2023/09/09 00:56:11;;;;;;;8.13;7.47;;;;;;;14.07;100.00;93261.59;2081938;28;20144;-82
2023/09/09 00:57:15;;;;;;;8.30;7.60;;;;;;;14.11;100.00;93261.50;2082125;28;20025;-83
2023/09/09 00:58:17;;;;;;;9.77;8.13;;;;;;;14.10;100.00;93254.63;2082382;28;20477;-83
2023/09/09 00:59:20;;;;;;;8.52;7.82;;;;;;;14.05;100.00;93253.25;2089902;28;20431;-83
2023/09/09 01:00:22;;;;;;;8.15;7.18;;;;;;;13.97;100.00;93257.34;2098397;28;20067;-83
2023/09/09 01:01:24;;;;;;;8.18;7.43;;;;;;;13.90;100.00;93256.81;2094827;28;21595;-84
2023/09/09 01:02:33;;;;;;;8.75;7.95;;;;;;;13.98;100.00;93256.16;2096390;28;20044;-84
2023/09/09 01:03:44;;;;;;;9.48;7.68;;;;;;;13.88;100.00;93254.56;2089964;28;20028;-83
2023/09/09 01:04:49;;;;;;;8.55;7.65;;;;;;;13.92;100.00;93255.22;2098382;28;20090;-83
2023/09/09 01:05:52;;;;;;;7.97;7.30;;;;;;;13.94;100.00;93252.81;2097411;28;20044;-83
2023/09/09 01:06:54;;;;;;;8.63;7.93;;;;;;;13.90;100.00;93254.13;2089990;28;20081;-83
2023/09/09 01:07:59;;;;;;;8.88;8.15;;;;;;;13.91;100.00;93250.25;2086724;28;20028;-84
2023/09/09 01:09:06;;;;;;;8.27;7.57;;;;;;;13.92;100.00;93252.53;2090496;28;20501;-83
2023/09/09 01:10:15;;;;;;;8.93;7.20;;;;;;;13.95;100.00;93257.00;2091184;28;20029;-84
2023/09/09 01:11:19;;;;;;;9.23;8.30;;;;;;;13.94;100.00;93254.75;2086961;28;20125;-84
2023/09/09 01:12:24;;;;;;;12.10;7.95;;;;;;;13.91;100.00;93250.25;2090072;28;20047;-83
2023/09/09 01:13:30;;;;;;;8.27;7.47;;;;;;;13.98;100.00;93253.47;2096762;28;20111;-84
2023/09/09 01:14:35;;;;;;;8.73;7.82;;;;;;;13.94;100.00;93250.13;2104075;28;20023;-84
2023/09/09 01:15:37;;;;;;;9.00;8.13;;;;;;;13.93;100.00;93243.25;2098541;28;20028;-84
2023/09/09 01:16:41;;;;;;;8.70;7.65;;;;;;;13.91;100.00;93253.69;2089511;28;20029;-83
2023/09/09 01:17:46;;;;;;;9.68;8.77;;;;;;;13.91;100.00;93252.94;2089908;28;20052;-83
2023/09/09 01:18:49;;;;;;;9.57;8.63;;;;;;;13.97;100.00;93259.28;2085975;28;20040;-84
2023/09/09 01:19:51;;;;;;;8.82;8.02;;;;;;;13.90;100.00;93256.81;2086319;28;20465;-84
2023/09/09 01:21:04;;;;;;;8.98;8.07;;;;;;;13.91;100.00;93259.06;2090249;28;20020;-85
2023/09/09 01:22:17;;;;;;;9.55;8.63;;;;;;;13.98;100.00;93256.16;2099211;28;20086;-83
2023/09/09 01:23:24;;;;;;;9.07;8.18;;;;;;;13.95;100.00;93256.25;2100356;28;20032;-83
2023/09/09 01:24:31;;;;;;;8.68;7.80;;;;;;;13.93;100.00;93251.31;2096447;28;20167;-83
2023/09/09 01:25:32;;;;;;;11.75;8.27;;;;;;;13.90;100.00;93251.44;2081707;28;20028;-84
2023/09/09 01:26:37;;;;;;;7.97;7.28;;;;;;;13.90;100.00;93254.88;2085747;28;20016;-83
2023/09/09 01:27:39;;;;;;;8.90;8.13;;;;;;;13.77;100.00;93251.44;2097943;28;20416;-82
2023/09/09 01:28:42;;;;;;;9.13;7.68;;;;;;;13.80;100.00;93248.66;2091262;28;20104;-84
2023/09/09 01:29:52;;;;;;;9.43;8.57;;;;;;;13.75;100.00;93248.47;2098199;28;20114;-83
2023/09/09 01:30:57;;;;;;;8.98;8.10;;;;;;;13.86;100.00;93254.22;2084457;28;20021;-83
2023/09/09 01:32:03;;;;;;;10.48;7.90;;;;;;;13.93;100.00;93253.25;2089611;28;20381;-82
2023/09/09 01:33:04;;;;;;;8.80;8.00;;;;;;;13.89;100.00;93256.06;2098670;28;20031;-83
2023/09/09 01:34:07;;;;;;;8.88;8.10;;;;;;;13.84;100.00;93251.25;2106003;28;20108;-83
2023/09/09 01:35:14;;;;;;;8.93;8.13;;;;;;;13.75;100.00;93251.91;2095695;28;20036;-83
2023/09/09 01:36:18;;;;;;;8.32;7.63;;;;;;;13.70;100.00;93252.44;2089871;28;20160;-83
2023/09/09 01:37:20;;;;;;;8.85;7.95;;;;;;;13.77;100.00;93251.44;2082009;28;20496;-83
2023/09/09 01:38:25;;;;;;;10.35;8.43;;;;;;;13.69;100.00;93250.91;2092137;28;20033;-83
2023/09/09 01:39:26;;;;;;;8.95;8.10;;;;;;;13.71;100.00;93250.50;2097942;28;20505;-83
2023/09/09 01:40:28;;;;;;;8.93;8.15;;;;;;;13.63;100.00;93246.53;2097561;28;20115;-82
2023/09/09 01:41:30;;;;;;;11.13;8.10;;;;;;;13.72;100.00;93249.31;2100822;28;20481;-84
2023/09/09 01:42:36;;;;;;;8.65;7.90;;;;;;;13.76;100.00;93249.97;2096586;28;20064;-83
2023/09/09 01:43:38;;;;;;;8.45;7.75;;;;;;;13.73;100.00;93246.19;2090374;28;20029;-84
2023/09/09 01:44:45;;;;;;;9.07;7.82;;;;;;;13.73;100.00;93246.19;2083255;28;20036;-82
2023/09/09 01:45:48;;;;;;;8.95;7.97;;;;;;;13.73;100.00;93250.81;2090720;28;20017;-83
2023/09/09 01:46:50;;;;;;;9.07;7.95;;;;;;;13.77;100.00;93246.84;2098169;28;20078;-82
2023/09/09 01:47:52;;;;;;;8.57;7.78;;;;;;;13.72;100.00;93247.38;2105712;28;20031;-83
2023/09/09 01:48:54;;;;;;;9.07;8.25;;;;;;;13.69;100.00;93252.84;2089222;28;20041;-85
2023/09/09 01:49:55;;;;;;;9.73;8.73;;;;;;;13.62;100.00;93251.16;2097182;28;20036;-84
2023/09/09 01:50:59;;;;;;;9.70;8.35;;;;;;;13.63;100.00;93251.91;2097307;28;20111;-84
2023/09/09 01:52:04;;;;;;;9.38;8.48;;;;;;;13.50;100.00;93252.66;2083881;28;20477;-84
2023/09/09 01:53:06;;;;;;;8.75;8.00;;;;;;;13.53;100.00;93246.44;2098179;28;20029;-83
2023/09/09 01:54:07;;;;;;;8.70;7.90;;;;;;;13.63;100.00;93252.66;2097576;28;20016;-84
2023/09/09 01:55:09;;;;;;;8.95;8.05;;;;;;;13.61;100.00;93249.66;2089156;28;20442;-83
2023/09/09 01:56:10;;;;;;;12.07;8.60;;;;;;;13.62;100.00;93250.41;2089131;28;20462;-83
2023/09/09 01:57:14;;;;;;;8.63;7.82;;;;;;;13.53;100.00;93253.75;2089955;28;20516;-82
2023/09/09 01:58:15;;;;;;;9.38;8.57;;;;;;;13.54;100.00;93244.50;2097657;28;20603;-83
2023/09/09 01:59:17;;;;;;;9.70;8.38;;;;;;;13.50;100.00;93252.66;2097860;28;20524;-84
2023/09/09 02:00:19;;;;;;;8.63;7.82;;;;;;;13.48;100.00;93249.66;2088223;28;20190;-83
2023/09/09 02:01:22;;;;;;;9.93;8.40;;;;;;;13.46;100.00;93251.28;2089326;28;20116;-84
2023/09/09 02:02:24;;;;;;;8.90;8.00;;;;;;;13.46;100.00;93238.59;2088131;28;20118;-83
2023/09/09 02:03:26;;;;;;;11.75;8.77;;;;;;;13.45;100.00;93253.22;2089260;28;20021;-83
2023/09/09 02:04:28;;;;;;;9.07;8.13;;;;;;;13.43;100.00;93241.38;2081637;28;20029;-85
2023/09/09 02:05:31;;;;;;;9.63;8.68;;;;;;;13.47;100.00;93248.16;2093961;28;20021;-84
2023/09/09 02:06:35;;;;;;;9.15;8.23;;;;;;;13.48;100.00;93238.94;2097605;28;20116;-84
2023/09/09 02:07:36;;;;;;;9.88;8.05;;;;;;;13.47;100.00;93250.09;2105886;28;20098;-83
2023/09/09 02:08:42;;;;;;;8.70;7.90;;;;;;;13.41;100.00;93246.44;2095249;28;20039;-83
2023/09/09 02:09:47;;;;;;;9.20;8.23;;;;;;;13.42;100.00;93251.38;2090205;28;20025;-85
2023/09/09 02:10:55;;;;;;;10.00;8.50;;;;;;;13.38;100.00;93245.34;2106627;28;20020;-82
2023/09/09 02:11:56;;;;;;;9.57;8.52;;;;;;;13.35;100.00;93246.25;2105496;28;20420;-83
2023/09/09 02:12:59;;;;;;;9.75;8.90;;;;;;;13.27;100.00;93244.94;2097088;28;20028;-83
2023/09/09 02:14:06;;;;;;;11.25;8.68;;;;;;;13.39;100.00;93249.56;2085795;28;20048;-83
2023/09/09 02:15:09;;;;;;;10.05;8.38;;;;;;;13.41;100.00;93254.50;2096583;28;20025;-84
2023/09/09 02:16:11;;;;;;;9.80;8.80;;;;;;;13.40;100.00;93250.31;2099281;28;20016;-83
2023/09/09 02:17:12;;;;;;;9.77;8.55;;;;;;;13.41;100.00;93247.19;2087860;28;20497;-83
2023/09/09 02:18:14;;;;;;;9.38;8.50;;;;;;;13.32;100.00;93245.16;2089242;28;20040;-84
2023/09/09 02:19:15;;;;;;;8.95;8.15;;;;;;;13.31;100.00;93240.97;2098285;28;20059;-83
2023/09/09 02:20:17;;;;;;;10.02;7.70;;;;;;;13.38;100.00;93248.03;2094678;28;20027;-83
2023/09/09 02:23:10;;;;;;;;;;;;;;;13.13;100.00;93240.72;2122357;27;20573;-86
2023/09/09 02:24:11;;;;;;;9.65;7.90;;;;;;;13.27;100.00;93242.25;2104141;28;19963;-86
2023/09/09 02:25:12;;;;;;;8.88;7.97;;;;;;;13.27;100.00;93234.22;2095964;28;20029;-85
2023/09/09 02:26:14;;;;;;;8.52;7.70;;;;;;;13.25;100.00;93236.56;2096095;28;20106;-85
2023/09/09 02:27:19;;;;;;;9.50;8.10;;;;;;;13.27;100.00;93237.63;2093076;28;20108;-86
2023/09/09 02:28:25;;;;;;;8.80;7.90;;;;;;;13.22;100.00;93237.41;2088879;28;20032;-85
2023/09/09 02:29:27;;;;;;;9.35;8.40;;;;;;;13.21;100.00;93236.63;2088951;28;20025;-86
2023/09/09 02:30:31;;;;;;;9.05;8.13;;;;;;;13.24;100.00;93232.38;2095682;28;20744;-85
2023/09/09 02:31:33;;;;;;;9.25;8.23;;;;;;;13.12;100.00;93239.19;2105079;28;20028;-86
2023/09/09 02:32:35;;;;;;;11.50;8.40;;;;;;;13.05;100.00;93236.75;2094522;28;20430;-86
2023/09/09 02:33:38;;;;;;;9.02;8.02;;;;;;;13.11;100.00;93232.34;2094880;28;20480;-86
2023/09/09 02:34:39;;;;;;;9.05;7.85;;;;;;;13.11;100.00;93230.41;2087908;28;20053;-86
2023/09/09 02:35:44;;;;;;;9.55;8.13;;;;;;;13.08;100.00;93233.19;2092758;28;20044;-86
2023/09/09 02:37:18;;;;;;;9.13;8.23;;;;;;;13.14;100.00;93228.81;2095341;28;20029;-86
2023/09/09 02:38:20;;;;;;;9.77;8.25;;;;;;;13.08;100.00;93235.88;2088793;28;20028;-85
2023/09/09 02:39:25;;;;;;;10.23;8.45;;;;;;;13.13;100.00;93234.59;2088638;28;20398;-85
2023/09/09 02:40:26;;;;;;;9.45;8.20;;;;;;;13.13;100.00;93237.28;2104343;28;21042;-86
2023/09/09 02:41:40;;;;;;;10.60;8.40;;;;;;;13.04;100.00;93236.00;2090247;28;20048;-86
2023/09/09 02:42:42;;;;;;;8.95;8.15;;;;;;;13.08;100.00;93235.88;2088963;28;20494;-85
2023/09/09 02:43:44;;;;;;;10.60;8.07;;;;;;;13.11;100.00;93230.41;2079664;28;20048;-88
2023/09/09 02:44:51;;;;;;;9.07;8.18;;;;;;;13.09;100.00;93235.47;2104280;28;20028;-87
2023/09/09 02:45:55;;;;;;;9.63;8.20;;;;;;;13.05;100.00;93236.75;2104058;28;20032;-86
2023/09/09 02:46:57;;;;;;;10.05;8.77;;;;;;;13.03;100.00;93239.84;2098319;28;20032;-87
2023/09/09 02:48:05;;;;;;;9.73;8.73;;;;;;;13.02;100.00;93232.97;2089952;28;20021;-87
2023/09/09 02:49:07;;;;;;;9.57;8.60;;;;;;;13.07;100.00;93239.72;2109194;28;20016;-85
2023/09/09 02:50:15;;;;;;;9.70;8.70;;;;;;;13.06;100.00;93235.56;2104584;28;20111;-87
2023/09/09 02:51:16;;;;;;;9.30;8.40;;;;;;;12.96;100.00;93232.00;2106127;28;20121;-87
2023/09/09 02:52:18;;;;;;;12.18;8.88;;;;;;;12.95;100.00;93235.09;2104282;28;20020;-86
2023/09/09 02:53:26;;;;;;;10.07;8.55;;;;;;;12.91;100.00;93229.84;2088514;28;20035;-87
2023/09/09 02:54:28;;;;;;;8.52;7.72;;;;;;;12.91;100.00;93237.16;2088696;28;20017;-87
2023/09/09 02:55:30;;;;;;;9.35;8.35;;;;;;;12.94;100.00;93236.28;2096176;28;20039;-86
2023/09/09 02:56:32;;;;;;;9.25;8.20;;;;;;;12.95;100.00;93230.50;2112737;28;20411;-86
2023/09/09 02:57:39;;;;;;;9.23;8.43;;;;;;;13.00;100.00;93227.28;2096468;28;20033;-86
2023/09/09 02:58:44;;;;;;;9.48;8.48;;;;;;;12.96;100.00;93228.56;2105074;28;20478;-86
2023/09/09 02:59:46;;;;;;;9.85;8.82;;;;;;;12.99;100.00;93227.69;2096610;28;20032;-86
2023/09/09 03:00:49;;;;;;;9.23;8.43;;;;;;;12.99;100.00;93225.03;2087342;28;20033;-87
2023/09/09 03:01:51;;;;;;;9.85;8.85;;;;;;;12.96;100.00;93226.63;2096331;28;20547;-86
2023/09/09 03:03:04;;;;;;;10.32;8.95;;;;;;;12.99;100.00;93230.38;2088769;28;20033;-86
2023/09/09 03:04:06;;;;;;;9.57;8.38;;;;;;;13.01;100.00;93231.47;2093199;28;20025;-85
2023/09/09 03:05:11;;;;;;;8.80;8.10;;;;;;;12.93;100.00;93226.75;2104348;28;20062;-86
2023/09/09 03:06:14;;;;;;;8.90;8.02;;;;;;;12.92;100.00;93227.94;2112299;28;20062;-86
2023/09/09 03:07:16;;;;;;;9.13;8.27;;;;;;;13.01;100.00;93233.41;2096016;28;20024;-86
2023/09/09 03:08:17;;;;;;;9.38;8.48;;;;;;;12.97;100.00;93227.38;2087790;28;20029;-86
2023/09/09 03:09:18;;;;;;;9.18;8.27;;;;;;;12.97;100.00;93227.38;2087553;28;20029;-86
2023/09/09 03:10:20;;;;;;;9.52;8.55;;;;;;;12.90;100.00;93227.59;2095767;28;20028;-85
2023/09/09 03:11:22;;;;;;;10.65;8.75;;;;;;;12.86;100.00;93233.03;2104200;28;20024;-85
2023/09/09 03:12:25;;;;;;;8.90;8.00;;;;;;;12.90;100.00;93231.00;2096093;28;20028;-85
2023/09/09 03:13:27;;;;;;;8.93;8.10;;;;;;;12.87;100.00;93236.50;2088047;28;20021;-85
2023/09/09 03:14:31;;;;;;;9.45;8.23;;;;;;;12.84;100.00;93236.16;2094470;28;20024;-87
2023/09/09 03:15:46;;;;;;;9.43;8.40;;;;;;;12.91;100.00;93235.22;2087928;28;20390;-85
2023/09/09 03:16:51;;;;;;;9.27;8.43;;;;;;;12.90;100.00;93232.94;2089586;28;20083;-85
2023/09/09 03:17:53;;;;;;;11.13;8.50;;;;;;;12.80;100.00;93232.09;2094205;28;20029;-85
2023/09/09 03:18:55;;;;;;;9.98;8.98;;;;;;;12.80;100.00;93226.72;2087842;28;20075;-86
2023/09/09 03:19:57;;;;;;;10.98;8.43;;;;;;;12.81;100.00;93228.97;2104367;28;20036;-86
2023/09/09 03:20:59;;;;;;;10.85;8.23;;;;;;;12.80;100.00;93230.16;2095303;28;20854;-87
2023/09/09 03:22:05;;;;;;;9.88;8.98;;;;;;;12.80;100.00;93227.47;2082831;28;20028;-86
2023/09/09 03:23:07;;;;;;;8.95;8.05;;;;;;;12.78;100.00;93231.78;2071744;28;20061;-86
2023/09/09 03:24:08;;;;;;;9.80;8.90;;;;;;;12.76;100.00;93226.81;2079240;28;20018;-86
2023/09/09 03:25:10;;;;;;;8.88;8.07;;;;;;;12.87;100.00;93234.56;2087582;28;20112;-86
2023/09/09 03:26:18;;;;;;;9.35;8.45;;;;;;;12.84;100.00;93230.06;2093665;28;20492;-85
2023/09/09 03:27:21;;;;;;;9.07;8.20;;;;;;;12.86;100.00;93230.38;2094934;28;20542;-85
2023/09/09 03:28:23;;;;;;;10.00;8.93;;;;;;;12.81;100.00;93226.28;2087472;28;20025;-85
2023/09/09 03:29:24;;;;;;;11.52;9.63;;;;;;;12.83;100.00;93220.50;2084755;28;20150;-85
2023/09/09 03:30:26;;;;;;;9.68;8.65;;;;;;;12.82;100.00;93227.06;2088008;28;20063;-86
2023/09/09 03:31:27;;;;;;;10.23;9.00;;;;;;;12.82;100.00;93227.81;2087574;28;20032;-86
2023/09/09 03:32:31;;;;;;;13.18;8.85;;;;;;;12.84;100.00;93227.38;2092462;28;20013;-86
2023/09/09 03:33:33;;;;;;;10.00;8.27;;;;;;;12.89;100.00;93226.84;2087007;28;20144;-85
2023/09/09 03:34:35;;;;;;;8.95;8.13;;;;;;;12.83;100.00;93226.63;2087977;28;20024;-86
2023/09/09 03:35:37;;;;;;;10.15;9.15;;;;;;;12.83;100.00;93223.19;2073768;28;20029;-85
2023/09/09 03:36:39;;;;;;;9.45;8.55;;;;;;;12.81;100.00;93226.28;2082088;28;20563;-87
2023/09/09 03:37:41;;;;;;;9.10;8.30;;;;;;;12.85;100.00;93228.88;2085919;28;20112;-85
2023/09/09 03:38:43;;;;;;;9.85;8.95;;;;;;;12.86;100.00;93227.69;2082258;28;20104;-86
2023/09/09 03:39:45;;;;;;;10.43;9.43;;;;;;;12.85;100.00;93221.56;2072825;28;20030;-85
2023/09/09 03:40:47;;;;;;;9.35;8.57;;;;;;;12.85;100.00;93229.63;2073791;28;21085;-86
2023/09/09 03:41:48;;;;;;;8.70;7.80;;;;;;;12.88;100.00;93222.66;2082087;28;20034;-86
2023/09/09 03:42:51;;;;;;;10.00;9.00;;;;;;;12.85;100.00;93231.56;2078154;28;20045;-85
2023/09/09 03:43:52;;;;;;;10.02;8.70;;;;;;;12.87;100.00;93229.22;2074124;28;20378;-86
2023/09/09 03:44:54;;;;;;;9.18;8.35;;;;;;;12.87;100.00;93231.16;2065890;28;20018;-85
2023/09/09 03:45:56;;;;;;;12.27;9.18;;;;;;;12.88;100.00;93227.28;2072677;28;20467;-86
2023/09/09 03:46:59;;;;;;;9.30;8.43;;;;;;;12.83;100.00;93228.56;2082440;28;20401;-85
2023/09/09 03:48:00;;;;;;;9.45;8.50;;;;;;;12.89;100.00;93226.84;2081953;28;20548;-85
2023/09/09 03:49:03;;;;;;;10.93;8.80;;;;;;;12.84;100.00;93227.38;2074668;28;20079;-85
2023/09/09 03:50:05;;;;;;;9.18;8.43;;;;;;;12.88;100.00;93230.69;2082369;28;20044;-86
2023/09/09 03:51:06;;;;;;;9.15;8.32;;;;;;;12.87;100.00;93223.84;2089928;28;20017;-86
2023/09/09 03:52:08;;;;;;;9.77;8.88;;;;;;;12.88;100.00;93233.38;2082102;28;20446;-85
2023/09/09 03:53:16;;;;;;;8.73;8.02;;;;;;;12.85;100.00;93226.94;2089859;28;20116;-85
2023/09/09 03:54:17;;;;;;;8.85;8.05;;;;;;;12.87;100.00;93231.16;2092448;28;20025;-86
2023/09/09 03:55:19;;;;;;;10.48;9.40;;;;;;;12.81;100.00;93228.22;2090127;28;20021;-85
2023/09/09 03:56:20;;;;;;;10.00;9.07;;;;;;;12.81;100.00;93225.53;2078676;28;20505;-86
2023/09/09 03:57:22;;;;;;;9.98;9.00;;;;;;;12.79;100.00;93228.66;2073607;28;20647;-86
2023/09/09 03:58:25;;;;;;;10.25;9.25;;;;;;;12.90;100.00;93230.28;2073911;28;20052;-87
2023/09/09 03:59:31;;;;;;;11.65;8.32;;;;;;;12.93;100.00;93232.84;2073967;28;20398;-84
2023/09/09 04:00:36;;;;;;;9.35;8.43;;;;;;;12.86;100.00;93233.03;2074299;28;20029;-85
2023/09/09 04:01:40;;;;;;;11.43;8.52;;;;;;;12.91;100.00;93235.22;2073048;28;20120;-85
2023/09/09 04:02:46;;;;;;;11.35;8.43;;;;;;;12.90;100.00;93232.94;2071741;28;20112;-86
2023/09/09 04:03:50;;;;;;;10.02;9.02;;;;;;;12.85;100.00;93239.59;2065038;28;20035;-85
2023/09/09 04:04:54;;;;;;;9.30;8.32;;;;;;;12.84;100.00;93236.16;2080882;28;20024;-84
2023/09/09 04:05:56;;;;;;;9.43;8.52;;;;;;;12.81;100.00;93234.31;2073966;28;20092;-86
2023/09/09 04:07:03;;;;;;;9.77;8.88;;;;;;;12.81;100.00;93239.69;2081867;28;20059;-85
2023/09/09 04:08:15;;;;;;;12.32;8.32;;;;;;;12.77;100.00;93233.69;2077344;28;20423;-86
2023/09/09 04:09:22;;;;;;;9.38;8.32;;;;;;;12.71;100.00;93234.63;2073705;28;20034;-86
2023/09/09 04:10:27;;;;;;;9.40;8.55;;;;;;;12.75;100.00;93236.03;2083529;28;20036;-86
2023/09/09 04:11:36;;;;;;;9.25;8.35;;;;;;;12.76;100.00;93240.22;2082850;28;20339;-85
2023/09/09 04:12:39;;;;;;;8.80;7.97;;;;;;;12.74;100.00;93231.13;2073840;28;20037;-87
2023/09/09 04:13:40;;;;;;;9.07;8.18;;;;;;;12.73;100.00;93234.94;2073795;28;20466;-87
2023/09/09 04:14:43;;;;;;;9.20;8.38;;;;;;;12.67;100.00;93234.72;2077036;28;20108;-85
2023/09/09 04:15:44;;;;;;;8.73;7.82;;;;;;;12.58;100.00;93238.03;2082013;28;20556;-86
2023/09/09 04:16:46;;;;;;;8.90;8.10;;;;;;;12.60;100.00;93235.69;2068275;28;20019;-86
2023/09/09 04:17:50;;;;;;;8.60;7.85;;;;;;;12.63;100.00;93239.44;2074894;28;20037;-85
2023/09/09 04:18:52;;;;;;;8.65;7.85;;;;;;;12.61;100.00;93228.41;2074551;28;20418;-86
2023/09/09 04:19:54;;;;;;;8.60;7.80;;;;;;;12.53;100.00;93235.88;2086412;28;20597;-86
2023/09/09 04:20:56;;;;;;;10.55;8.35;;;;;;;12.46;100.00;93233.38;2073861;28;20056;-86
2023/09/09 04:22:07;;;;;;;9.90;8.23;;;;;;;12.55;100.00;93236.19;2075906;28;20065;-86
2023/09/09 04:23:11;;;;;;;8.98;8.18;;;;;;;12.56;100.00;93242.34;2074854;28;20455;-85
2023/09/09 04:24:13;;;;;;;9.23;8.32;;;;;;;12.51;100.00;93235.56;2074191;28;20038;-86
2023/09/09 04:25:15;;;;;;;9.77;8.10;;;;;;;12.50;100.00;93234.03;2073704;28;20029;-86
2023/09/09 04:26:16;;;;;;;8.48;7.68;;;;;;;12.48;100.00;93238.34;2065402;28;20032;-86
2023/09/09 04:27:18;;;;;;;9.27;8.02;;;;;;;12.47;100.00;93234.16;2071500;28;20116;-86
2023/09/09 04:28:26;;;;;;;9.43;8.40;;;;;;;12.41;100.00;93231.22;2068152;28;20468;-87
2023/09/09 04:29:28;;;;;;;9.65;8.20;;;;;;;12.45;100.00;93234.56;2059410;28;20436;-86
2023/09/09 04:30:30;;;;;;;9.38;8.48;;;;;;;12.39;100.00;93232.84;2073558;28;20037;-87
2023/09/09 04:31:32;;;;;;;10.98;8.55;;;;;;;12.43;100.00;93230.81;2084805;28;20075;-86
2023/09/09 04:32:34;;;;;;;9.43;8.52;;;;;;;12.39;100.00;93235.53;2073295;28;20033;-86
2023/09/09 04:33:38;;;;;;;8.95;8.05;;;;;;;12.41;100.00;93227.78;2088711;28;20032;-86
2023/09/09 04:34:40;;;;;;;11.95;8.65;;;;;;;12.43;100.00;93236.19;2075280;28;20057;-86
2023/09/09 04:35:43;;;;;;;15.70;9.75;;;;;;;12.42;100.00;93235.41;2073765;28;20058;-86
2023/09/09 04:36:47;;;;;;;9.43;8.52;;;;;;;12.38;100.00;93228.63;2073880;28;20025;-86
2023/09/09 04:37:50;;;;;;;9.95;8.95;;;;;;;12.38;100.00;93231.31;2073519;28;20487;-86
2023/09/09 04:38:51;;;;;;;10.20;8.75;;;;;;;12.35;100.00;93232.94;2073396;28;20129;-88
2023/09/09 04:39:54;;;;;;;10.77;9.20;;;;;;;12.36;100.00;93229.06;2076800;28;20022;-85
2023/09/09 04:40:55;;;;;;;11.90;9.57;;;;;;;12.33;100.00;93232.59;2081422;28;20021;-86
2023/09/09 04:41:58;;;;;;;9.60;8.70;;;;;;;12.39;100.00;93228.22;2065210;28;20510;-85
2023/09/09 04:43:02;;;;;;;10.57;9.57;;;;;;;12.31;100.00;93233.03;2065413;28;20042;-85
2023/09/09 04:44:08;;;;;;;11.60;9.63;;;;;;;12.30;100.00;93226.16;2066102;28;20387;-87
2023/09/09 04:45:09;;;;;;;11.23;9.55;;;;;;;12.30;100.00;93236.88;2063191;28;20026;-87
2023/09/09 04:46:11;;;;;;;10.95;9.27;;;;;;;12.35;100.00;93235.63;2063948;28;20069;-86
2023/09/09 04:47:12;;;;;;;11.38;9.32;;;;;;;12.32;100.00;93231.84;2073468;28;20105;-86
2023/09/09 04:48:14;;;;;;;12.38;9.93;;;;;;;12.33;100.00;93229.91;2081917;28;20032;-87
2023/09/09 04:49:17;;;;;;;13.52;10.30;;;;;;;12.32;100.00;93236.44;2073439;28;20108;-87
2023/09/09 04:50:19;;;;;;;10.88;9.65;;;;;;;12.27;100.00;93234.28;2073343;28;20026;-86
2023/09/09 04:51:24;;;;;;;10.85;9.45;;;;;;;12.26;100.00;93238.91;2073204;28;20175;-85
2023/09/09 04:52:29;;;;;;;11.13;10.07;;;;;;;12.37;100.00;93237.84;2071202;28;20022;-86
2023/09/09 04:53:31;;;;;;;11.93;10.75;;;;;;;12.38;100.00;93234.78;2073859;28;20530;-86
2023/09/09 04:54:35;;;;;;;11.02;9.55;;;;;;;12.39;100.00;93241.63;2073182;28;20092;-85
2023/09/09 04:55:41;;;;;;;10.45;9.32;;;;;;;12.39;100.00;93244.31;2065612;28;20029;-85
2023/09/09 04:56:49;;;;;;;10.57;9.43;;;;;;;12.33;100.00;93233.34;2077031;28;20025;-86
2023/09/09 04:57:53;;;;;;;14.38;10.15;;;;;;;12.38;100.00;93236.69;2080858;28;20029;-85